Time;durP1;ratioP1;P1;durP2;ratioP2;P2;SDS_P1;SDS_P2;PMS_P1;PMS_P2;Temp;Humidity;BMP_temperature;BMP_pressure;BME280_temperature;BME280_humidity;BME280_pressure;Samples;Min_cycle;Max_cycle;Signal;HPM_P1;HPM_P2
2022/01/28 00:00:32;;;;;;;18.08;5.10;;;;;;;;;;5038251;28;20037;-58
2022/01/28 00:03:05;;;;;;;23.30;5.20;;;;;;;;;;5039642;28;20083;-57
2022/01/28 00:05:30;;;;;;;11.38;4.03;;;;;;;;;;5037425;28;20402;-58
2022/01/28 00:07:55;;;;;;;18.13;5.25;;;;;;;;;;5038578;28;20028;-58
2022/01/28 00:10:22;;;;;;;23.90;6.60;;;;;;;;;;5038614;28;20037;-57
2022/01/28 00:15:44;;;;;;;24.08;6.93;;;;;;;;;;5036676;28;20082;-58
2022/01/28 00:18:46;;;;;;;32.92;6.40;;;;;;;;;;5040103;28;20072;-58
2022/01/28 00:37:02;;;;;;;16.08;5.22;;;;;;;;;;5040386;28;20491;-58
2022/01/28 00:39:27;;;;;;;25.83;7.90;;;;;;;;;;5038606;28;20033;-58
2022/01/28 00:41:52;;;;;;;11.87;4.97;;;;;;;;;;5037559;28;20443;-58
2022/01/28 00:44:18;;;;;;;20.27;7.25;;;;;;;;;;5038546;28;20072;-57
2022/01/28 00:46:43;;;;;;;23.63;6.60;;;;;;;;;;5037635;28;20021;-58
2022/01/28 00:49:08;;;;;;;21.93;6.07;;;;;;;;;;5038813;28;20559;-58
2022/01/28 00:51:33;;;;;;;28.58;6.40;;;;;;;;;;5039068;28;20010;-58
2022/01/28 00:53:58;;;;;;;24.77;6.33;;;;;;;;;;5036843;28;20571;-58
2022/01/28 00:56:24;;;;;;;32.40;5.30;;;;;;;;;;5039377;28;20029;-58
2022/01/28 00:58:49;;;;;;;22.73;6.53;;;;;;;;;;5036789;28;20033;-59
2022/01/28 01:01:14;;;;;;;19.77;6.07;;;;;;;;;;5038770;28;20017;-58
2022/01/28 01:03:39;;;;;;;21.60;7.38;;;;;;;;;;5040795;28;20021;-58
2022/01/28 01:06:04;;;;;;;23.43;9.00;;;;;;;;;;5042103;28;20025;-58
2022/01/28 01:08:30;;;;;;;33.00;6.68;;;;;;;;;;5040731;28;20530;-58
2022/01/28 01:10:55;;;;;;;29.57;7.30;;;;;;;;;;5042443;28;20021;-58
2022/01/28 01:13:20;;;;;;;29.45;7.38;;;;;;;;;;5041911;28;20109;-58
2022/01/28 01:15:50;;;;;;;23.20;5.93;;;;;;;;;;5041505;28;20021;-58
2022/01/28 01:18:21;;;;;;;15.75;5.28;;;;;;;;;;5042462;28;20071;-58
2022/01/28 01:23:21;;;;;;;31.77;6.47;;;;;;;;;;5042835;28;20426;-58
2022/01/28 01:25:51;;;;;;;30.08;7.13;;;;;;;;;;5039127;28;20519;-58
2022/01/28 01:28:19;;;;;;;20.83;4.55;;;;;;;;;;5042682;28;20040;-58
2022/01/28 01:30:45;;;;;;;19.33;5.35;;;;;;;;;;5039399;28;20034;-58
2022/01/28 01:33:11;;;;;;;27.13;3.67;;;;;;;;;;5042118;28;20044;-58
2022/01/28 01:35:37;;;;;;;30.30;7.20;;;;;;;;;;5041048;28;20026;-58
2022/01/28 01:38:03;;;;;;;17.48;4.82;;;;;;;;;;5040970;28;20591;-58
2022/01/28 01:40:34;;;;;;;21.48;4.07;;;;;;;;;;5039690;28;20121;-58
2022/01/28 01:43:19;;;;;;;20.45;5.28;;;;;;;;;;5041357;28;20040;-58
2022/01/28 01:53:43;;;;;;;12.48;4.05;;;;;;;;;;5041405;28;21318;-58
2022/01/28 01:56:08;;;;;;;15.90;5.17;;;;;;;;;;5040861;28;20025;-58
2022/01/28 01:58:33;;;;;;;24.88;6.25;;;;;;;;;;5040682;28;20435;-58
2022/01/28 02:00:59;;;;;;;27.37;6.27;;;;;;;;;;5040840;28;20021;-58
2022/01/28 02:03:24;;;;;;;24.90;5.80;;;;;;;;;;5039369;28;20017;-57
2022/01/28 02:05:50;;;;;;;19.27;5.60;;;;;;;;;;5042318;28;20059;-57
2022/01/28 02:08:15;;;;;;;26.67;8.35;;;;;;;;;;5041465;28;21024;-57
2022/01/28 02:10:40;;;;;;;22.58;5.32;;;;;;;;;;5039122;28;20049;-58
2022/01/28 02:13:05;;;;;;;49.30;8.57;;;;;;;;;;5041356;28;20021;-58
2022/01/28 02:15:30;;;;;;;28.85;5.88;;;;;;;;;;5037168;28;20507;-58
2022/01/28 02:17:57;;;;;;;24.30;5.50;;;;;;;;;;5041271;28;20412;-58
2022/01/28 02:20:29;;;;;;;20.42;6.75;;;;;;;;;;5038938;28;20484;-58
2022/01/28 02:22:55;;;;;;;22.63;7.30;;;;;;;;;;5040937;28;20021;-58
2022/01/28 02:25:21;;;;;;;19.85;7.15;;;;;;;;;;5039281;28;20102;-58
2022/01/28 02:27:46;;;;;;;40.40;10.23;;;;;;;;;;5042465;28;20041;-58
2022/01/28 02:30:13;;;;;;;29.57;6.47;;;;;;;;;;5038017;28;20463;-58
2022/01/28 02:32:38;;;;;;;32.45;6.70;;;;;;;;;;5041645;28;20014;-58
2022/01/28 02:35:04;;;;;;;23.52;6.43;;;;;;;;;;5038479;28;20095;-58
2022/01/28 02:37:29;;;;;;;45.05;6.95;;;;;;;;;;5041811;28;20128;-58
2022/01/28 02:39:54;;;;;;;19.53;7.80;;;;;;;;;;5037551;28;20048;-58
2022/01/28 02:42:28;;;;;;;23.88;5.90;;;;;;;;;;5039743;28;20547;-58
2022/01/28 02:44:55;;;;;;;32.25;6.43;;;;;;;;;;5038848;28;20041;-58
2022/01/28 02:47:34;;;;;;;16.67;6.25;;;;;;;;;;5040536;28;20044;-57
2022/01/28 02:50:00;;;;;;;26.08;6.35;;;;;;;;;;5039931;28;20030;-58
2022/01/28 02:52:36;;;;;;;28.27;6.97;;;;;;;;;;5039495;28;20028;-58
2022/01/28 02:55:04;;;;;;;31.50;6.70;;;;;;;;;;5038241;28;20487;-58
2022/01/28 02:57:29;;;;;;;20.10;6.55;;;;;;;;;;5041151;28;20395;-58
2022/01/28 02:59:54;;;;;;;21.80;6.28;;;;;;;;;;5038411;28;20034;-58
2022/01/28 03:02:20;;;;;;;21.63;6.63;;;;;;;;;;5040131;28;20047;-58
2022/01/28 03:07:28;;;;;;;26.35;5.30;;;;;;;;;;5039372;28;20075;-57
2022/01/28 03:10:26;;;;;;;36.57;8.00;;;;;;;;;;5039302;28;20398;-58
2022/01/28 03:15:25;;;;;;;26.05;5.28;;;;;;;;;;5039905;28;20041;-58
2022/01/28 03:17:55;;;;;;;22.75;5.68;;;;;;;;;;5039344;28;20128;-58
2022/01/28 03:22:46;;;;;;;33.58;7.88;;;;;;;;;;5041278;28;20349;-58
2022/01/28 03:25:12;;;;;;;18.67;5.25;;;;;;;;;;5037429;28;20072;-57
2022/01/28 03:30:03;;;;;;;19.13;4.93;;;;;;;;;;5039042;28;20044;-57
2022/01/28 03:32:28;;;;;;;26.10;6.50;;;;;;;;;;5039216;28;20014;-57
2022/01/28 03:34:53;;;;;;;22.02;7.50;;;;;;;;;;5038617;28;20630;-57
2022/01/28 03:37:20;;;;;;;31.35;6.68;;;;;;;;;;5040216;28;20096;-58
2022/01/28 03:39:45;;;;;;;30.67;6.93;;;;;;;;;;5037247;28;20029;-57
2022/01/28 03:42:10;;;;;;;23.13;6.65;;;;;;;;;;5040972;28;20028;-58
2022/01/28 03:44:37;;;;;;;20.52;4.40;;;;;;;;;;5037499;28;20030;-58
2022/01/28 03:47:02;;;;;;;37.22;8.55;;;;;;;;;;5039037;28;20092;-57
2022/01/28 03:49:28;;;;;;;15.45;4.53;;;;;;;;;;5039515;28;20117;-57
2022/01/28 03:51:53;;;;;;;24.25;6.35;;;;;;;;;;5038001;28;20358;-57
2022/01/28 03:54:18;;;;;;;22.52;5.63;;;;;;;;;;5038611;28;20033;-57
2022/01/28 03:56:43;;;;;;;16.92;5.22;;;;;;;;;;5038656;28;20028;-57
2022/01/28 03:59:08;;;;;;;27.80;7.38;;;;;;;;;;5039026;28;20459;-57
2022/01/28 04:01:37;;;;;;;21.60;4.38;;;;;;;;;;5038543;28;20025;-58
2022/01/28 04:12:10;;;;;;;17.38;5.30;;;;;;;;;;5038493;28;20504;-57
2022/01/28 04:14:59;;;;;;;25.20;6.30;;;;;;;;;;5038513;28;20037;-58
2022/01/28 04:17:21;;;;;;;22.92;4.60;;;;;;;;;;5037976;28;20819;-58
2022/01/28 04:19:47;;;;;;;18.05;5.43;;;;;;;;;;5038510;28;20033;-59
2022/01/28 04:22:12;;;;;;;9.35;3.85;;;;;;;;;;5039594;28;20504;-58
2022/01/28 04:24:38;;;;;;;27.43;6.90;;;;;;;;;;5038508;28;20080;-58
2022/01/28 04:27:03;;;;;;;26.55;5.15;;;;;;;;;;5036972;28;20444;-58
2022/01/28 04:29:28;;;;;;;25.08;5.75;;;;;;;;;;5039196;28;20029;-58
2022/01/28 04:31:53;;;;;;;13.68;4.80;;;;;;;;;;5038884;28;20128;-58
2022/01/28 04:34:21;;;;;;;34.97;9.35;;;;;;;;;;5037415;28;20434;-59
2022/01/28 04:37:04;;;;;;;15.25;6.75;;;;;;;;;;5039763;28;20021;-58
2022/01/28 04:42:34;;;;;;;25.48;6.00;;;;;;;;;;5042769;28;20025;-58
2022/01/28 04:53:00;;;;;;;13.98;4.80;;;;;;;;;;5041194;28;20043;-58
2022/01/28 04:55:41;;;;;;;31.92;8.68;;;;;;;;;;5040475;28;20447;-58
2022/01/28 04:58:22;;;;;;;13.18;4.25;;;;;;;;;;5041602;28;20049;-58
2022/01/28 05:09:33;;;;;;;30.48;7.40;;;;;;;;;;5031794;28;20121;-58
2022/01/28 05:27:26;;;;;;;20.92;5.50;;;;;;;;;;5042859;28;20029;-57
2022/01/28 05:29:51;;;;;;;16.35;6.50;;;;;;;;;;5039594;28;20032;-57
2022/01/28 05:32:16;;;;;;;31.38;7.60;;;;;;;;;;5042045;28;20029;-57
2022/01/28 05:34:42;;;;;;;17.33;5.40;;;;;;;;;;5039620;28;20029;-57
2022/01/28 05:37:07;;;;;;;19.83;4.75;;;;;;;;;;5040264;28;20448;-57
2022/01/28 05:39:33;;;;;;;18.00;5.93;;;;;;;;;;5039531;28;20033;-57
2022/01/28 05:41:59;;;;;;;24.00;5.60;;;;;;;;;;5040942;28;20823;-57
2022/01/28 05:44:25;;;;;;;17.63;4.93;;;;;;;;;;5041399;28;20045;-57
2022/01/28 05:46:52;;;;;;;24.95;6.22;;;;;;;;;;5040734;28;20025;-57
2022/01/28 05:49:17;;;;;;;26.25;8.95;;;;;;;;;;5040280;28;20175;-57
2022/01/28 05:51:43;;;;;;;14.00;3.73;;;;;;;;;;5042217;28;20089;-58
2022/01/28 05:54:08;;;;;;;27.00;6.00;;;;;;;;;;5039449;28;20463;-57
2022/01/28 05:56:34;;;;;;;34.13;8.35;;;;;;;;;;5042099;28;20013;-57
2022/01/28 05:58:59;;;;;;;22.88;5.80;;;;;;;;;;5040434;28;20044;-57
2022/01/28 06:01:24;;;;;;;10.55;4.95;;;;;;;;;;5040824;28;20021;-57
2022/01/28 06:03:50;;;;;;;29.60;9.13;;;;;;;;;;5040905;28;20033;-57
2022/01/28 06:06:23;;;;;;;28.40;7.80;;;;;;;;;;5041194;28;20033;-57
2022/01/28 06:08:50;;;;;;;15.75;4.72;;;;;;;;;;5039348;28;20030;-57
2022/01/28 06:11:16;;;;;;;35.03;9.63;;;;;;;;;;5041575;28;20047;-57
2022/01/28 06:13:41;;;;;;;28.73;8.77;;;;;;;;;;5040177;28;20056;-57
2022/01/28 06:16:06;;;;;;;19.42;4.22;;;;;;;;;;5040561;28;20022;-57
2022/01/28 06:18:31;;;;;;;20.27;6.43;;;;;;;;;;5040471;28;20073;-56
2022/01/28 06:20:56;;;;;;;15.60;4.45;;;;;;;;;;5041051;28;20977;-56
2022/01/28 06:23:22;;;;;;;24.13;7.15;;;;;;;;;;5040934;28;20017;-57
2022/01/28 06:25:48;;;;;;;25.90;5.63;;;;;;;;;;5040415;28;20032;-57
2022/01/28 06:28:13;;;;;;;21.55;6.63;;;;;;;;;;5040953;28;20021;-56
2022/01/28 06:30:39;;;;;;;21.70;6.78;;;;;;;;;;5039494;28;20480;-56
2022/01/28 06:33:04;;;;;;;19.77;5.87;;;;;;;;;;5041864;28;20376;-56
2022/01/28 06:35:29;;;;;;;17.90;4.05;;;;;;;;;;5038625;28;20044;-57
2022/01/28 06:37:54;;;;;;;19.80;4.45;;;;;;;;;;5049061;28;20017;-57
2022/01/28 06:40:19;;;;;;;23.17;7.83;;;;;;;;;;5050539;28;20065;-56
2022/01/28 06:42:45;;;;;;;28.20;7.13;;;;;;;;;;5052087;28;20473;-56
2022/01/28 06:45:10;;;;;;;30.83;6.32;;;;;;;;;;5050729;28;20447;-57
2022/01/28 06:47:36;;;;;;;29.25;6.75;;;;;;;;;;5052065;28;20372;-57
2022/01/28 06:50:04;;;;;;;28.05;8.68;;;;;;;;;;5048883;28;20126;-57
2022/01/28 06:52:29;;;;;;;24.73;5.53;;;;;;;;;;5042404;28;20516;-57
2022/01/28 06:54:55;;;;;;;20.48;5.20;;;;;;;;;;5038392;28;20041;-58
2022/01/28 06:57:20;;;;;;;28.30;5.68;;;;;;;;;;5042262;28;20416;-58
2022/01/28 06:59:45;;;;;;;30.15;8.18;;;;;;;;;;5039701;28;20119;-58
2022/01/28 07:02:10;;;;;;;18.37;6.50;;;;;;;;;;5040465;28;20020;-57
2022/01/28 07:04:35;;;;;;;16.07;4.43;;;;;;;;;;5040735;28;20055;-57
2022/01/28 07:07:00;;;;;;;24.27;4.63;;;;;;;;;;5040641;28;20985;-57
2022/01/28 07:09:26;;;;;;;20.60;6.27;;;;;;;;;;5039895;28;20029;-58
2022/01/28 07:11:51;;;;;;;29.85;6.10;;;;;;;;;;5041915;28;20804;-58
2022/01/28 07:14:16;;;;;;;21.20;5.07;;;;;;;;;;5044416;28;20167;-57
2022/01/28 07:16:41;;;;;;;16.07;5.17;;;;;;;;;;5051363;28;20771;-58
2022/01/28 07:19:08;;;;;;;21.95;8.05;;;;;;;;;;5049785;28;20566;-57
2022/01/28 07:21:33;;;;;;;32.15;6.28;;;;;;;;;;5051870;28;20017;-57
2022/01/28 07:23:58;;;;;;;27.83;7.13;;;;;;;;;;5049729;28;20083;-58
2022/01/28 07:26:24;;;;;;;24.27;6.40;;;;;;;;;;5051413;28;20425;-58
2022/01/28 07:28:50;;;;;;;27.30;6.60;;;;;;;;;;5049680;28;20776;-57
2022/01/28 07:31:17;;;;;;;35.63;6.43;;;;;;;;;;5051737;28;20028;-55
2022/01/28 07:33:43;;;;;;;25.17;8.73;;;;;;;;;;5049274;28;20387;-54
2022/01/28 07:36:08;;;;;;;20.88;5.70;;;;;;;;;;5048100;28;20120;-54
2022/01/28 07:38:33;;;;;;;17.30;5.15;;;;;;;;;;5050038;28;20029;-54
2022/01/28 07:40:59;;;;;;;32.30;9.07;;;;;;;;;;5048690;28;20068;-54
2022/01/28 07:43:24;;;;;;;23.52;6.28;;;;;;;;;;5051303;28;20396;-54
2022/01/28 07:45:49;;;;;;;25.30;4.72;;;;;;;;;;5049539;28;20072;-54
2022/01/28 07:48:14;;;;;;;19.43;7.97;;;;;;;;;;5051155;28;20155;-55
2022/01/28 07:50:39;;;;;;;26.52;8.55;;;;;;;;;;5049498;28;20462;-54
2022/01/28 07:53:05;;;;;;;26.07;5.73;;;;;;;;;;5051323;28;20083;-54
2022/01/28 07:55:30;;;;;;;26.17;7.00;;;;;;;;;;5049319;28;20447;-54
2022/01/28 07:57:55;;;;;;;26.27;5.37;;;;;;;;;;5050996;28;20100;-54
2022/01/28 08:00:26;;;;;;;20.83;7.32;;;;;;;;;;5049629;28;20462;-53
2022/01/28 08:02:51;;;;;;;13.30;4.82;;;;;;;;;;5050825;28;20056;-54
2022/01/28 08:05:16;;;;;;;21.83;6.10;;;;;;;;;;5049576;28;20488;-53
2022/01/28 08:07:43;;;;;;;36.00;8.38;;;;;;;;;;5050755;28;20477;-55
2022/01/28 08:10:08;;;;;;;22.58;4.88;;;;;;;;;;5049489;28;20033;-53
2022/01/28 08:12:42;;;;;;;23.63;7.05;;;;;;;;;;5052047;28;20028;-53
2022/01/28 08:15:08;;;;;;;31.33;6.80;;;;;;;;;;5053355;28;20396;-54
2022/01/28 08:17:33;;;;;;;38.28;7.13;;;;;;;;;;5053546;28;20037;-53
2022/01/28 08:19:58;;;;;;;22.23;5.13;;;;;;;;;;5053312;28;20040;-54
2022/01/28 08:22:23;;;;;;;28.30;6.85;;;;;;;;;;5055026;28;20522;-54
2022/01/28 08:24:48;;;;;;;21.38;6.35;;;;;;;;;;5053042;28;20060;-54
2022/01/28 08:27:13;;;;;;;32.72;7.82;;;;;;;;;;5054816;28;20021;-54
2022/01/28 08:29:38;;;;;;;19.02;5.78;;;;;;;;;;5053169;28;20484;-54
2022/01/28 08:32:04;;;;;;;24.83;8.45;;;;;;;;;;5054676;28;20021;-54
2022/01/28 08:34:31;;;;;;;26.98;6.53;;;;;;;;;;5048211;28;20056;-54
2022/01/28 08:36:56;;;;;;;22.08;6.60;;;;;;;;;;5045763;28;20044;-54
2022/01/28 08:39:22;;;;;;;34.15;5.97;;;;;;;;;;5052861;28;20472;-54
2022/01/28 08:41:47;;;;;;;25.45;7.85;;;;;;;;;;5035119;28;20036;-54
2022/01/28 08:44:13;;;;;;;34.13;8.60;;;;;;;;;;5033411;28;20384;-53
2022/01/28 08:46:38;;;;;;;31.07;8.47;;;;;;;;;;5034124;28;20479;-54
2022/01/28 08:49:03;;;;;;;20.10;7.68;;;;;;;;;;5034411;28;20427;-54
2022/01/28 08:51:28;;;;;;;25.23;6.63;;;;;;;;;;5032936;28;20128;-52
2022/01/28 08:53:54;;;;;;;19.83;5.93;;;;;;;;;;5048534;28;20021;-54
2022/01/28 08:56:19;;;;;;;29.33;6.18;;;;;;;;;;5052377;28;20585;-54
2022/01/28 08:58:44;;;;;;;35.88;8.55;;;;;;;;;;5054136;28;20024;-54
2022/01/28 09:01:11;;;;;;;34.17;9.57;;;;;;;;;;5052477;28;20059;-53
2022/01/28 09:03:36;;;;;;;18.80;6.82;;;;;;;;;;5054140;28;20017;-55
2022/01/28 09:06:01;;;;;;;47.57;10.97;;;;;;;;;;5052581;28;20031;-54
2022/01/28 09:08:27;;;;;;;32.13;5.38;;;;;;;;;;5053599;28;20522;-55
2022/01/28 09:11:08;;;;;;;20.92;7.47;;;;;;;;;;5052419;28;20110;-54
2022/01/28 09:13:37;;;;;;;32.17;9.02;;;;;;;;;;5054419;28;20067;-54
2022/01/28 09:16:03;;;;;;;58.08;7.30;;;;;;;;;;5051666;28;20037;-55
2022/01/28 09:18:28;;;;;;;23.75;7.38;;;;;;;;;;5053502;28;20446;-54
2022/01/28 09:20:54;;;;;;;20.90;7.55;;;;;;;;;;5052123;28;20056;-55
2022/01/28 09:23:19;;;;;;;27.38;8.63;;;;;;;;;;5053369;28;20025;-55
2022/01/28 09:25:44;;;;;;;22.85;5.57;;;;;;;;;;5051955;28;20033;-54
2022/01/28 09:28:09;;;;;;;38.22;8.82;;;;;;;;;;5054051;28;20009;-54
2022/01/28 09:30:35;;;;;;;29.73;8.33;;;;;;;;;;5051926;28;20033;-54
2022/01/28 09:33:01;;;;;;;29.52;10.65;;;;;;;;;;5053787;28;20444;-54
2022/01/28 09:35:26;;;;;;;34.65;7.25;;;;;;;;;;5052112;28;20037;-53
2022/01/28 09:37:51;;;;;;;22.63;5.80;;;;;;;;;;5053271;28;20074;-53
2022/01/28 09:40:17;;;;;;;19.13;8.18;;;;;;;;;;5052040;28;20443;-54
2022/01/28 09:42:45;;;;;;;18.10;5.70;;;;;;;;;;5053275;28;20021;-55
2022/01/28 09:45:10;;;;;;;23.63;8.37;;;;;;;;;;5051858;28;20025;-54
2022/01/28 09:47:36;;;;;;;26.33;8.80;;;;;;;;;;5053478;28;20025;-54
2022/01/28 09:50:03;;;;;;;23.45;5.65;;;;;;;;;;5051653;28;20075;-54
2022/01/28 09:52:28;;;;;;;25.73;8.13;;;;;;;;;;5052885;28;20071;-54
2022/01/28 09:54:53;;;;;;;23.27;6.57;;;;;;;;;;5051464;28;20053;-54
2022/01/28 09:57:19;;;;;;;36.97;11.13;;;;;;;;;;5053287;28;20446;-53
2022/01/28 09:59:45;;;;;;;24.75;8.77;;;;;;;;;;5051460;28;20503;-54
2022/01/28 10:02:10;;;;;;;20.48;6.75;;;;;;;;;;5053156;28;20017;-54
2022/01/28 10:04:36;;;;;;;22.58;5.90;;;;;;;;;;5051824;28;20029;-53
2022/01/28 10:07:11;;;;;;;38.67;8.85;;;;;;;;;;5052808;28;20063;-54
2022/01/28 10:09:36;;;;;;;26.33;6.57;;;;;;;;;;5051638;28;20040;-53
2022/01/28 10:12:26;;;;;;;34.50;7.55;;;;;;;;;;5052911;28;20480;-54
2022/01/28 10:15:04;;;;;;;24.52;7.10;;;;;;;;;;5050918;28;20041;-54
2022/01/28 10:17:48;;;;;;;26.55;7.88;;;;;;;;;;5053068;28;20033;-53
2022/01/28 10:20:13;;;;;;;20.40;5.10;;;;;;;;;;5051168;28;20121;-54
2022/01/28 10:22:48;;;;;;;20.10;5.67;;;;;;;;;;5052011;28;20570;-54
2022/01/28 10:25:21;;;;;;;29.63;9.57;;;;;;;;;;5049764;28;20035;-53
2022/01/28 10:27:59;;;;;;;26.38;5.57;;;;;;;;;;5051894;28;20017;-53
2022/01/28 10:30:24;;;;;;;17.38;7.32;;;;;;;;;;5050732;28;20058;-53
2022/01/28 10:33:08;;;;;;;32.00;7.63;;;;;;;;;;5052542;28;20017;-53
2022/01/28 10:35:33;;;;;;;20.67;6.07;;;;;;;;;;5039709;28;20041;-54
2022/01/28 10:37:59;;;;;;;29.42;8.25;;;;;;;;;;5043288;28;20039;-54
2022/01/28 10:40:24;;;;;;;22.50;6.07;;;;;;;;;;5040756;28;20415;-53
2022/01/28 10:42:51;;;;;;;26.20;6.40;;;;;;;;;;5032337;28;20043;-54
2022/01/28 10:45:21;;;;;;;23.75;8.10;;;;;;;;;;5030541;28;20479;-54
2022/01/28 10:47:51;;;;;;;22.25;5.60;;;;;;;;;;5033900;28;20100;-55
2022/01/28 10:50:19;;;;;;;31.90;8.00;;;;;;;;;;5050879;28;20037;-54
2022/01/28 10:52:44;;;;;;;22.58;8.13;;;;;;;;;;5040589;28;20057;-54
2022/01/28 10:55:17;;;;;;;29.23;9.25;;;;;;;;;;5030636;28;20095;-55
2022/01/28 10:57:54;;;;;;;19.10;5.70;;;;;;;;;;5032038;28;20021;-54
2022/01/28 11:00:19;;;;;;;23.00;5.15;;;;;;;;;;5030330;28;20041;-54
2022/01/28 11:02:45;;;;;;;24.55;8.45;;;;;;;;;;5031718;28;20029;-55
2022/01/28 11:05:10;;;;;;;30.77;6.47;;;;;;;;;;5030393;28;20047;-53
2022/01/28 11:07:35;;;;;;;22.92;6.10;;;;;;;;;;5032546;28;20021;-54
2022/01/28 11:10:00;;;;;;;39.42;8.43;;;;;;;;;;5039154;28;20068;-54
2022/01/28 11:12:26;;;;;;;19.25;8.15;;;;;;;;;;5031674;28;20053;-54
2022/01/28 11:14:51;;;;;;;31.42;7.28;;;;;;;;;;5041008;28;20086;-54
2022/01/28 11:17:17;;;;;;;23.42;6.07;;;;;;;;;;5039626;28;20040;-53
2022/01/28 11:19:43;;;;;;;37.67;9.45;;;;;;;;;;5050119;28;20033;-54
2022/01/28 11:22:27;;;;;;;27.02;6.53;;;;;;;;;;5048015;28;20025;-53
2022/01/28 11:25:06;;;;;;;41.10;10.00;;;;;;;;;;5035527;28;20136;-54
2022/01/28 11:27:32;;;;;;;36.35;10.60;;;;;;;;;;5036357;28;20049;-54
2022/01/28 11:30:15;;;;;;;25.98;5.85;;;;;;;;;;5046301;28;20556;-54
2022/01/28 11:33:00;;;;;;;24.08;5.90;;;;;;;;;;5050771;28;20104;-55
2022/01/28 11:35:27;;;;;;;29.67;8.68;;;;;;;;;;5047631;28;20562;-54
2022/01/28 11:37:54;;;;;;;31.35;9.05;;;;;;;;;;5031403;28;20030;-54
2022/01/28 11:40:19;;;;;;;25.38;10.32;;;;;;;;;;5039279;28;20041;-54
2022/01/28 11:42:44;;;;;;;34.57;6.60;;;;;;;;;;5048969;28;20029;-52
2022/01/28 11:45:10;;;;;;;24.33;5.90;;;;;;;;;;5035148;28;21049;-55
2022/01/28 11:47:35;;;;;;;29.23;8.45;;;;;;;;;;5037383;28;20083;-54
2022/01/28 11:50:04;;;;;;;35.10;10.27;;;;;;;;;;5039541;28;20030;-53
2022/01/28 11:52:30;;;;;;;27.35;7.18;;;;;;;;;;5039832;28;20082;-54
2022/01/28 11:54:56;;;;;;;27.98;8.07;;;;;;;;;;5041312;28;20056;-54
2022/01/28 11:57:24;;;;;;;31.10;8.77;;;;;;;;;;5039868;28;20104;-54
2022/01/28 11:59:49;;;;;;;18.65;5.63;;;;;;;;;;5041274;28;20063;-52
2022/01/28 12:02:15;;;;;;;19.10;4.50;;;;;;;;;;5045398;28;20650;-54
2022/01/28 12:04:41;;;;;;;23.48;5.68;;;;;;;;;;5047522;28;20036;-53
2022/01/28 12:07:17;;;;;;;25.02;6.68;;;;;;;;;;5049090;28;20117;-54
2022/01/28 12:09:44;;;;;;;24.60;6.05;;;;;;;;;;5044286;28;20441;-53
2022/01/28 12:12:10;;;;;;;27.10;6.85;;;;;;;;;;5034322;28;20017;-53
2022/01/28 12:14:52;;;;;;;19.40;5.07;;;;;;;;;;5029223;28;20124;-53
2022/01/28 12:17:33;;;;;;;25.80;6.93;;;;;;;;;;5040079;28;20023;-54
2022/01/28 12:20:12;;;;;;;33.72;9.25;;;;;;;;;;5049174;28;20450;-54
2022/01/28 12:22:56;;;;;;;25.50;10.30;;;;;;;;;;5035171;28;20029;-54
2022/01/28 12:25:36;;;;;;;28.45;7.25;;;;;;;;;;5029266;28;20034;-54
2022/01/28 12:28:10;;;;;;;23.95;8.68;;;;;;;;;;5030535;28;20021;-53
2022/01/28 12:30:35;;;;;;;17.70;6.65;;;;;;;;;;5029191;28;20049;-55
2022/01/28 12:33:01;;;;;;;19.10;7.60;;;;;;;;;;5030558;28;20025;-53
2022/01/28 12:35:26;;;;;;;22.47;6.20;;;;;;;;;;5028924;28;20100;-53
2022/01/28 12:37:59;;;;;;;18.90;5.78;;;;;;;;;;5030552;28;20511;-53
2022/01/28 12:40:25;;;;;;;35.17;7.38;;;;;;;;;;5029451;28;20044;-54
2022/01/28 12:42:54;;;;;;;22.20;6.35;;;;;;;;;;5030864;28;20480;-54
2022/01/28 12:45:19;;;;;;;26.77;6.25;;;;;;;;;;5029008;28;20040;-54
2022/01/28 12:47:44;;;;;;;29.67;8.32;;;;;;;;;;5030416;28;20025;-54
2022/01/28 12:50:10;;;;;;;34.15;8.07;;;;;;;;;;5028764;28;20040;-54
2022/01/28 12:52:35;;;;;;;21.58;6.03;;;;;;;;;;5030993;28;20577;-54
2022/01/28 12:55:00;;;;;;;26.70;5.60;;;;;;;;;;5028945;28;20033;-54
2022/01/28 12:57:26;;;;;;;22.67;8.15;;;;;;;;;;5030485;28;20040;-54
2022/01/28 12:59:51;;;;;;;22.95;5.53;;;;;;;;;;5031779;28;20034;-55
2022/01/28 13:02:17;;;;;;;22.07;6.10;;;;;;;;;;5045640;28;20404;-54
2022/01/28 13:10:24;;;;;;;14.10;5.13;;;;;;;;;;5032876;28;20511;-54
2022/01/28 13:12:50;;;;;;;28.30;6.90;;;;;;;;;;5033348;28;20033;-54
2022/01/28 13:15:16;;;;;;;22.85;6.30;;;;;;;;;;5032771;28;20043;-54
2022/01/28 13:17:50;;;;;;;33.92;10.55;;;;;;;;;;5037785;28;20049;-54
2022/01/28 13:20:16;;;;;;;24.15;5.35;;;;;;;;;;5040022;28;20045;-55
2022/01/28 13:22:41;;;;;;;32.63;8.55;;;;;;;;;;5049732;28;20694;-54
2022/01/28 13:25:20;;;;;;;23.35;6.05;;;;;;;;;;5047461;28;20037;-54
2022/01/28 13:27:46;;;;;;;37.42;8.95;;;;;;;;;;5048223;28;20448;-54
2022/01/28 13:30:14;;;;;;;27.90;7.53;;;;;;;;;;5032361;28;20033;-53
2022/01/28 13:32:41;;;;;;;28.30;6.35;;;;;;;;;;5033715;28;20468;-54
2022/01/28 13:35:14;;;;;;;22.63;7.80;;;;;;;;;;5031915;28;20034;-54
2022/01/28 13:37:44;;;;;;;21.75;5.43;;;;;;;;;;5034440;28;20392;-55
2022/01/28 13:40:11;;;;;;;35.53;8.60;;;;;;;;;;5033279;28;20120;-54
2022/01/28 13:42:37;;;;;;;19.35;7.88;;;;;;;;;;5038388;28;20123;-55
2022/01/28 13:45:04;;;;;;;24.70;8.40;;;;;;;;;;5043300;28;20030;-54
2022/01/28 13:47:48;;;;;;;27.90;7.85;;;;;;;;;;5037691;28;20573;-54
2022/01/28 13:50:21;;;;;;;17.85;5.88;;;;;;;;;;5050339;28;20083;-54
2022/01/28 13:52:51;;;;;;;27.52;7.05;;;;;;;;;;5051296;28;20059;-55
2022/01/28 13:55:33;;;;;;;27.85;6.63;;;;;;;;;;5045192;28;20046;-55
2022/01/28 13:58:04;;;;;;;24.58;6.60;;;;;;;;;;5045902;28;20022;-54
2022/01/28 14:00:40;;;;;;;14.68;4.10;;;;;;;;;;5031855;28;20048;-55
2022/01/28 14:03:12;;;;;;;31.63;6.55;;;;;;;;;;5041119;28;20111;-54
2022/01/28 14:05:53;;;;;;;21.33;6.22;;;;;;;;;;5049691;28;20040;-55
2022/01/28 14:08:36;;;;;;;30.48;5.95;;;;;;;;;;5042010;28;20029;-54
2022/01/28 14:11:21;;;;;;;23.38;7.22;;;;;;;;;;5047997;28;20043;-55
2022/01/28 14:14:05;;;;;;;21.90;6.00;;;;;;;;;;5049627;28;20040;-54
2022/01/28 14:16:30;;;;;;;30.25;9.40;;;;;;;;;;5034916;28;20044;-54
2022/01/28 14:18:56;;;;;;;28.38;7.13;;;;;;;;;;5041359;28;20040;-54
2022/01/28 14:21:21;;;;;;;20.33;5.78;;;;;;;;;;5046202;28;20025;-54
2022/01/28 14:23:46;;;;;;;27.50;6.18;;;;;;;;;;5047619;28;20040;-54
2022/01/28 14:26:11;;;;;;;28.50;6.05;;;;;;;;;;5049388;28;20476;-54
2022/01/28 14:29:08;;;;;;;22.52;5.55;;;;;;;;;;5035365;28;20021;-54
2022/01/28 14:31:21;;;;;;;16.55;4.90;;;;;;;;;;5031691;28;20025;-52
2022/01/28 14:33:49;;;;;;;18.10;5.57;;;;;;;;;;5031325;28;20414;-53
2022/01/28 14:36:14;;;;;;;17.40;4.60;;;;;;;;;;5045571;28;20092;-54
2022/01/28 14:38:39;;;;;;;24.20;6.80;;;;;;;;;;5033323;28;20766;-53
2022/01/28 14:41:05;;;;;;;15.77;4.87;;;;;;;;;;5040384;28;20040;-54
2022/01/28 14:43:30;;;;;;;25.38;7.05;;;;;;;;;;5048632;28;20482;-53
2022/01/28 14:45:55;;;;;;;18.48;5.10;;;;;;;;;;5049379;28;20031;-54
2022/01/28 14:48:22;;;;;;;20.53;5.57;;;;;;;;;;5042387;28;20044;-53
2022/01/28 14:50:48;;;;;;;18.63;5.28;;;;;;;;;;5031421;28;20847;-53
2022/01/28 14:53:13;;;;;;;18.88;4.32;;;;;;;;;;5042224;28;20017;-54
2022/01/28 14:55:40;;;;;;;15.20;5.17;;;;;;;;;;5034033;28;20485;-54
2022/01/28 14:58:06;;;;;;;19.50;4.68;;;;;;;;;;5033559;28;20467;-53
2022/01/28 15:00:31;;;;;;;14.13;5.55;;;;;;;;;;5039589;28;20128;-53
2022/01/28 15:02:56;;;;;;;24.17;8.43;;;;;;;;;;5036153;28;20088;-52
2022/01/28 15:05:21;;;;;;;18.20;4.35;;;;;;;;;;5037834;28;20554;-53
2022/01/28 15:07:47;;;;;;;33.05;7.45;;;;;;;;;;5041937;28;20099;-53
2022/01/28 15:10:13;;;;;;;16.85;4.00;;;;;;;;;;5030515;28;20030;-54
2022/01/28 15:12:40;;;;;;;20.38;5.57;;;;;;;;;;5038980;28;20484;-52
2022/01/28 15:15:05;;;;;;;25.25;4.05;;;;;;;;;;5031422;28;20091;-54
2022/01/28 15:17:31;;;;;;;17.55;4.68;;;;;;;;;;5035012;28;20038;-54
2022/01/28 15:19:56;;;;;;;15.80;4.05;;;;;;;;;;5033296;28;20064;-53
2022/01/28 15:22:21;;;;;;;12.13;5.32;;;;;;;;;;5037631;28;20040;-53
2022/01/28 15:24:47;;;;;;;18.10;4.35;;;;;;;;;;5031051;28;20029;-53
2022/01/28 15:27:12;;;;;;;25.15;4.03;;;;;;;;;;5038051;28;20084;-53
2022/01/28 15:29:48;;;;;;;13.40;3.42;;;;;;;;;;5044673;28;20044;-53
2022/01/28 15:37:41;;;;;;;10.70;3.42;;;;;;;;;;5046819;28;20115;-54
2022/01/28 15:40:06;;;;;;;19.70;5.78;;;;;;;;;;5039216;28;20049;-54
2022/01/28 15:42:32;;;;;;;19.52;3.63;;;;;;;;;;5044071;28;20079;-53
2022/01/28 15:44:57;;;;;;;9.63;3.63;;;;;;;;;;5033239;28;20617;-53
2022/01/28 15:47:22;;;;;;;14.45;3.47;;;;;;;;;;5041343;28;20341;-52
2022/01/28 15:49:47;;;;;;;20.90;4.72;;;;;;;;;;5046526;28;20028;-53
2022/01/28 15:52:13;;;;;;;16.58;3.42;;;;;;;;;;5049693;28;20100;-53
2022/01/28 15:54:38;;;;;;;17.52;3.67;;;;;;;;;;5041858;28;20037;-53
2022/01/28 15:57:04;;;;;;;23.13;5.37;;;;;;;;;;5034638;28;20025;-53
2022/01/28 15:59:29;;;;;;;19.13;4.13;;;;;;;;;;5048479;28;20117;-54
2022/01/28 16:01:54;;;;;;;18.70;6.50;;;;;;;;;;5039009;28;20029;-53
2022/01/28 16:04:19;;;;;;;14.10;4.95;;;;;;;;;;5031193;28;20061;-53